Time;durP1;ratioP1;P1;durP2;ratioP2;P2;SDS_P1;SDS_P2;PMS_P1;PMS_P2;Temp;Humidity;BMP_temperature;BMP_pressure;BME280_temperature;BME280_humidity;BME280_pressure;Samples;Min_cycle;Max_cycle;Signal;HPM_P1;HPM_P2
2023/04/05 00:00:07;;;;;;;1.63;1.52;;;;;;;;;;5064398;28;20221;-82
2023/04/05 00:02:35;;;;;;;1.30;1.20;;;;;;;;;;5075697;28;20205;-82
2023/04/05 00:05:05;;;;;;;1.60;1.50;;;;;;;;;;5074897;28;20228;-81
2023/04/05 00:07:33;;;;;;;1.45;1.35;;;;;;;;;;5074625;28;20240;-83
2023/04/05 00:10:00;;;;;;;1.17;1.13;;;;;;;;;;5073075;28;20221;-82
2023/04/05 00:12:27;;;;;;;1.65;1.55;;;;;;;;;;5075275;28;20208;-82
2023/04/05 00:14:55;;;;;;;1.20;1.10;;;;;;;;;;5072966;28;20241;-83
2023/04/05 00:17:23;;;;;;;2.33;1.42;;;;;;;;;;5065007;28;20202;-83
2023/04/05 00:19:56;;;;;;;1.58;1.48;;;;;;;;;;5064513;28;20270;-83
2023/04/05 00:22:25;;;;;;;1.33;1.23;;;;;;;;;;5063390;28;20292;-83
2023/04/05 00:24:53;;;;;;;1.42;1.33;;;;;;;;;;5062717;28;20229;-82
2023/04/05 00:27:20;;;;;;;1.38;1.27;;;;;;;;;;5061722;28;20233;-82
2023/04/05 00:29:48;;;;;;;1.30;1.20;;;;;;;;;;5062294;28;20702;-82
2023/04/05 00:32:15;;;;;;;1.50;1.40;;;;;;;;;;5061258;28;20225;-82
2023/04/05 00:34:43;;;;;;;1.73;1.23;;;;;;;;;;5061762;28;20253;-82
2023/04/05 00:37:12;;;;;;;1.73;1.63;;;;;;;;;;5060495;28;20292;-82
2023/04/05 00:39:41;;;;;;;1.52;1.42;;;;;;;;;;5061299;28;20669;-82
2023/04/05 00:42:08;;;;;;;1.48;1.38;;;;;;;;;;5060930;28;20201;-82
2023/04/05 00:44:37;;;;;;;1.40;1.30;;;;;;;;;;5059196;28;20229;-82
2023/04/05 00:47:06;;;;;;;2.58;1.83;;;;;;;;;;5060105;28;20201;-82
2023/04/05 00:49:35;;;;;;;2.28;2.05;;;;;;;;;;5059324;28;20222;-82
2023/04/05 00:52:03;;;;;;;1.65;1.55;;;;;;;;;;5059674;28;20712;-83
2023/04/05 00:54:31;;;;;;;2.42;1.63;;;;;;;;;;5058602;28;20317;-82
2023/04/05 00:57:00;;;;;;;2.08;1.85;;;;;;;;;;5058194;28;20581;-82
2023/04/05 00:59:29;;;;;;;3.50;1.50;;;;;;;;;;5057614;28;20666;-83
2023/04/05 01:02:00;;;;;;;1.73;1.52;;;;;;;;;;5057490;28;20579;-82
2023/04/05 01:04:30;;;;;;;1.60;1.50;;;;;;;;;;5057365;28;20712;-81
2023/04/05 01:07:07;;;;;;;1.60;1.50;;;;;;;;;;5058091;28;20680;-81
2023/04/05 01:09:42;;;;;;;1.77;1.63;;;;;;;;;;5057539;28;20260;-81
2023/04/05 01:12:17;;;;;;;2.38;1.60;;;;;;;;;;5060299;28;20201;-82
2023/04/05 01:14:50;;;;;;;1.20;1.10;;;;;;;;;;5061003;28;20218;-81
2023/04/05 01:17:21;;;;;;;1.42;1.33;;;;;;;;;;5060643;28;20206;-82
2023/04/05 01:19:52;;;;;;;1.70;1.50;;;;;;;;;;5060973;28;20577;-81
2023/04/05 01:23:12;;;;;;;1.48;1.38;;;;;;;;;;5060732;28;20605;-81
2023/04/05 01:26:51;;;;;;;1.30;1.20;;;;;;;;;;5060716;28;20237;-81
2023/04/05 01:29:47;;;;;;;1.85;1.73;;;;;;;;;;5002278;28;20838;-81
2023/04/05 01:32:25;;;;;;;2.00;1.60;;;;;;;;;;5016880;28;20286;-81
2023/04/05 01:34:56;;;;;;;1.58;1.48;;;;;;;;;;5036625;28;20228;-81
2023/04/05 01:37:28;;;;;;;1.25;1.20;;;;;;;;;;5039221;28;20244;-82
2023/04/05 01:39:56;;;;;;;1.20;1.20;;;;;;;;;;5041212;28;20293;-82
2023/04/05 01:42:25;;;;;;;1.70;1.60;;;;;;;;;;5047652;28;20679;-82
2023/04/05 01:44:56;;;;;;;1.35;1.27;;;;;;;;;;5044215;28;20236;-81
2023/04/05 01:47:23;;;;;;;2.55;1.55;;;;;;;;;;5041305;28;20206;-82
2023/04/05 01:49:51;;;;;;;1.90;1.80;;;;;;;;;;5040384;28;20229;-81
2023/04/05 01:52:18;;;;;;;2.58;1.40;;;;;;;;;;5041412;28;20233;-82
2023/04/05 01:54:46;;;;;;;1.83;1.73;;;;;;;;;;5040793;28;20305;-81
2023/04/05 01:57:13;;;;;;;1.35;1.25;;;;;;;;;;5039937;28;20289;-81
2023/04/05 01:59:40;;;;;;;3.05;1.98;;;;;;;;;;5037838;28;20741;-82
2023/04/05 02:02:09;;;;;;;2.75;1.55;;;;;;;;;;5038635;28;20637;-81
2023/04/05 02:04:37;;;;;;;1.80;1.70;;;;;;;;;;5056134;28;20308;-81
2023/04/05 02:07:05;;;;;;;1.52;1.42;;;;;;;;;;5058788;28;20210;-82
2023/04/05 02:09:32;;;;;;;1.85;1.73;;;;;;;;;;5057759;28;20320;-81
2023/04/05 02:12:00;;;;;;;2.05;1.70;;;;;;;;;;5057497;28;20233;-82
2023/04/05 02:14:27;;;;;;;1.63;1.52;;;;;;;;;;5056367;28;20225;-82
2023/04/05 02:16:55;;;;;;;1.48;1.30;;;;;;;;;;5056527;28;20557;-82
2023/04/05 02:19:24;;;;;;;1.60;1.30;;;;;;;;;;5055879;28;20202;-82
2023/04/05 02:21:53;;;;;;;2.03;1.90;;;;;;;;;;5055214;28;20205;-82
2023/04/05 02:24:21;;;;;;;1.40;1.30;;;;;;;;;;5056123;28;20225;-82
2023/04/05 02:26:50;;;;;;;1.30;1.30;;;;;;;;;;5056054;28;20206;-82
2023/04/05 02:29:17;;;;;;;2.20;1.80;;;;;;;;;;5055591;28;20201;-82
2023/04/05 02:31:44;;;;;;;1.95;1.70;;;;;;;;;;5055922;28;20280;-82
2023/04/05 02:34:12;;;;;;;1.73;1.40;;;;;;;;;;5056223;28;20752;-82
2023/04/05 02:36:42;;;;;;;1.85;1.60;;;;;;;;;;5056377;28;20255;-82
2023/04/05 02:39:10;;;;;;;1.50;1.40;;;;;;;;;;5056843;28;20202;-82
2023/04/05 02:41:37;;;;;;;1.30;1.20;;;;;;;;;;5056102;28;20221;-82
2023/04/05 02:44:05;;;;;;;1.42;1.38;;;;;;;;;;5056821;28;20205;-82
2023/04/05 02:46:33;;;;;;;1.30;1.20;;;;;;;;;;5055609;28;20280;-82
2023/04/05 02:49:00;;;;;;;2.15;1.55;;;;;;;;;;5055821;28;20583;-82
2023/04/05 02:51:27;;;;;;;1.90;1.70;;;;;;;;;;5057496;28;20312;-82
2023/04/05 02:53:56;;;;;;;1.60;1.50;;;;;;;;;;5057146;28;20295;-82
2023/04/05 02:56:24;;;;;;;1.60;1.27;;;;;;;;;;5055972;28;20222;-82
2023/04/05 02:58:51;;;;;;;1.85;1.75;;;;;;;;;;5056129;28;20210;-81
2023/04/05 03:01:19;;;;;;;1.80;1.70;;;;;;;;;;5056267;28;20289;-82
2023/04/05 03:03:46;;;;;;;1.92;1.75;;;;;;;;;;5055727;28;20208;-82
2023/04/05 03:06:14;;;;;;;2.60;1.58;;;;;;;;;;5089578;22;20319;-81
2023/04/05 03:08:44;;;;;;;1.75;1.65;;;;;;;;;;5077007;28;20268;-80
2023/04/05 03:11:14;;;;;;;1.70;1.60;;;;;;;;;;5080073;28;20319;-78
2023/04/05 03:13:42;;;;;;;2.28;2.08;;;;;;;;;;5080254;28;20326;-81
2023/04/05 03:16:09;;;;;;;2.75;2.25;;;;;;;;;;5079863;28;20672;-80
2023/04/05 03:18:36;;;;;;;2.20;2.00;;;;;;;;;;5079262;28;20665;-79
2023/04/05 03:21:20;;;;;;;2.08;1.88;;;;;;;;;;5079519;28;20284;-81
2023/04/05 03:23:49;;;;;;;1.77;1.67;;;;;;;;;;5079327;28;20240;-80
2023/04/05 03:26:18;;;;;;;2.30;2.05;;;;;;;;;;5080055;28;20288;-80
2023/04/05 03:36:09;;;;;;;2.25;1.60;;;;;;;;;;5067613;28;20213;-81
2023/04/05 03:38:36;;;;;;;2.42;1.98;;;;;;;;;;5059507;28;20233;-80
2023/04/05 03:41:04;;;;;;;3.03;2.53;;;;;;;;;;5058825;28;20204;-81
2023/04/05 03:43:33;;;;;;;1.95;1.85;;;;;;;;;;5059210;28;20292;-79
2023/04/05 03:46:00;;;;;;;2.90;1.65;;;;;;;;;;5059307;28;20222;-79
2023/04/05 03:48:27;;;;;;;1.73;1.48;;;;;;;;;;5059002;28;20272;-79
2023/04/05 03:50:55;;;;;;;2.10;1.85;;;;;;;;;;5058302;28;20232;-79
2023/04/05 03:53:22;;;;;;;2.08;1.95;;;;;;;;;;5057455;28;20202;-80
2023/04/05 03:55:53;;;;;;;2.50;2.30;;;;;;;;;;5059200;28;20222;-81
2023/04/05 03:58:20;;;;;;;1.98;1.65;;;;;;;;;;5059649;28;20255;-79
2023/04/05 04:00:49;;;;;;;2.03;1.92;;;;;;;;;;5058217;28;20202;-79
2023/04/05 04:03:17;;;;;;;1.92;1.83;;;;;;;;;;5058897;28;20292;-81
2023/04/05 04:05:44;;;;;;;1.77;1.67;;;;;;;;;;5058782;28;20250;-81
2023/04/05 04:08:12;;;;;;;1.80;1.70;;;;;;;;;;5058710;28;20204;-80
2023/04/05 04:10:39;;;;;;;1.70;1.60;;;;;;;;;;5058331;28;20233;-80
2023/04/05 04:13:07;;;;;;;2.15;1.50;;;;;;;;;;5058450;28;20684;-81
2023/04/05 04:15:34;;;;;;;1.80;1.70;;;;;;;;;;5058251;28;20312;-81
2023/04/05 04:18:03;;;;;;;1.80;1.67;;;;;;;;;;5057892;28;20210;-80
2023/04/05 04:20:31;;;;;;;1.67;1.55;;;;;;;;;;5057638;28;20208;-79
2023/04/05 04:22:58;;;;;;;1.65;1.55;;;;;;;;;;5057872;28;20665;-78
2023/04/05 04:25:29;;;;;;;1.52;1.42;;;;;;;;;;5058960;28;20308;-79
2023/04/05 04:27:57;;;;;;;1.58;1.25;;;;;;;;;;5059384;28;20728;-80
2023/04/05 04:30:25;;;;;;;1.55;1.45;;;;;;;;;;5058114;28;20292;-81
2023/04/05 04:32:55;;;;;;;1.80;1.70;;;;;;;;;;5062460;28;20262;-79
2023/04/05 04:35:26;;;;;;;1.50;1.40;;;;;;;;;;5078563;28;20232;-81
2023/04/05 04:37:57;;;;;;;1.65;1.55;;;;;;;;;;5078620;28;20223;-80
2023/04/05 04:40:28;;;;;;;1.42;1.33;;;;;;;;;;5078549;28;20207;-81
2023/04/05 04:42:57;;;;;;;1.73;1.63;;;;;;;;;;5078718;28;20201;-79
2023/04/05 04:45:25;;;;;;;2.38;2.05;;;;;;;;;;5079764;28;20229;-79
2023/04/05 04:47:53;;;;;;;1.50;1.40;;;;;;;;;;5082924;28;20638;-78
2023/04/05 04:50:23;;;;;;;2.60;2.15;;;;;;;;;;5082081;28;20200;-80
2023/04/05 04:52:50;;;;;;;2.78;2.20;;;;;;;;;;5082611;28;20220;-80
2023/04/05 04:55:17;;;;;;;1.85;1.75;;;;;;;;;;5082049;28;20228;-80
2023/04/05 04:57:45;;;;;;;2.83;2.53;;;;;;;;;;5080889;28;20638;-81
2023/04/05 05:00:14;;;;;;;3.28;2.30;;;;;;;;;;5082256;28;20220;-80
2023/04/05 05:02:43;;;;;;;2.63;2.03;;;;;;;;;;5082047;28;20197;-81
2023/04/05 05:05:11;;;;;;;5.40;2.38;;;;;;;;;;5082100;28;20204;-80
2023/04/05 05:07:41;;;;;;;2.42;1.73;;;;;;;;;;5082898;28;20737;-78
2023/04/05 05:10:11;;;;;;;2.50;1.80;;;;;;;;;;5083202;28;20288;-79
2023/04/05 05:12:38;;;;;;;1.70;1.55;;;;;;;;;;5082122;28;20588;-80
2023/04/05 05:15:07;;;;;;;1.60;1.50;;;;;;;;;;5080722;28;20209;-85
2023/04/05 05:17:36;;;;;;;1.30;1.20;;;;;;;;;;5078140;28;20208;-85
2023/04/05 05:20:09;;;;;;;1.55;1.45;;;;;;;;;;5077866;28;20205;-83
2023/04/05 05:22:37;;;;;;;2.33;1.52;;;;;;;;;;5078102;28;20207;-84
2023/04/05 05:25:11;;;;;;;1.52;1.40;;;;;;;;;;5072262;28;20197;-83
2023/04/05 05:27:38;;;;;;;1.90;1.80;;;;;;;;;;5061635;28;20204;-84
2023/04/05 05:30:08;;;;;;;3.25;3.00;;;;;;;;;;5074971;28;20728;-85
2023/04/05 05:32:35;;;;;;;2.20;2.10;;;;;;;;;;5078452;28;20786;-84
2023/04/05 05:35:03;;;;;;;3.50;2.33;;;;;;;;;;5076916;28;20289;-85
2023/04/05 05:37:31;;;;;;;2.53;2.33;;;;;;;;;;5081307;28;20231;-85
2023/04/05 05:39:59;;;;;;;2.83;2.53;;;;;;;;;;5083346;28;20254;-85
2023/04/05 05:42:31;;;;;;;2.28;2.08;;;;;;;;;;5062504;28;20611;-85
2023/04/05 05:45:01;;;;;;;2.15;2.05;;;;;;;;;;5058298;28;20198;-85
2023/04/05 05:47:29;;;;;;;4.35;2.83;;;;;;;;;;5058425;28;20279;-84
2023/04/05 05:49:56;;;;;;;2.45;2.25;;;;;;;;;;5058156;28;20197;-84
2023/04/05 05:52:24;;;;;;;2.72;2.10;;;;;;;;;;5057480;28;20309;-85
2023/04/05 05:54:52;;;;;;;2.80;1.98;;;;;;;;;;5069917;28;20205;-86
2023/04/05 05:57:20;;;;;;;2.45;2.25;;;;;;;;;;5079620;28;20681;-85
2023/04/05 05:59:49;;;;;;;2.38;2.17;;;;;;;;;;5081978;28;20204;-87
2023/04/05 06:02:16;;;;;;;3.30;2.13;;;;;;;;;;5079908;28;20224;-85
2023/04/05 06:04:44;;;;;;;3.00;2.70;;;;;;;;;;5077518;28;20266;-85
2023/04/05 06:07:12;;;;;;;3.17;2.88;;;;;;;;;;5076237;28;20631;-85
2023/04/05 06:09:40;;;;;;;4.18;3.33;;;;;;;;;;5077555;28;20247;-84
2023/04/05 06:12:08;;;;;;;3.90;2.65;;;;;;;;;;5077996;28;20223;-86
2023/04/05 06:14:35;;;;;;;2.75;2.40;;;;;;;;;;5077854;28;20732;-86
2023/04/05 06:17:04;;;;;;;4.72;3.35;;;;;;;;;;5083017;28;20241;-86
2023/04/05 06:19:32;;;;;;;2.78;2.58;;;;;;;;;;5082949;28;20201;-85
2023/04/05 06:22:00;;;;;;;3.20;2.85;;;;;;;;;;5081123;28;20708;-85
2023/04/05 06:24:30;;;;;;;2.38;2.28;;;;;;;;;;5081273;28;20208;-85
2023/04/05 06:26:58;;;;;;;4.22;2.60;;;;;;;;;;5081939;28;20315;-86
2023/04/05 06:29:25;;;;;;;3.00;2.67;;;;;;;;;;5081219;28;20228;-86
2023/04/05 06:32:10;;;;;;;2.63;2.25;;;;;;;;;;5079931;28;20649;-87
2023/04/05 06:34:37;;;;;;;2.10;2.00;;;;;;;;;;5076848;28;20676;-85
2023/04/05 06:37:05;;;;;;;4.13;3.05;;;;;;;;;;5076528;28;20227;-84
2023/04/05 06:39:32;;;;;;;2.72;2.53;;;;;;;;;;5075913;28;20288;-86
2023/04/05 06:42:00;;;;;;;2.35;2.20;;;;;;;;;;5075920;28;20713;-85
2023/04/05 06:44:27;;;;;;;2.95;2.30;;;;;;;;;;5075773;28;20201;-85
2023/04/05 06:46:55;;;;;;;2.30;2.10;;;;;;;;;;5075211;28;20642;-84
2023/04/05 06:49:24;;;;;;;2.70;2.50;;;;;;;;;;5074991;28;20197;-86
2023/04/05 06:51:51;;;;;;;2.67;2.03;;;;;;;;;;5075213;28;20663;-85
2023/04/05 06:54:21;;;;;;;2.83;2.58;;;;;;;;;;5074580;28;20284;-85
2023/04/05 06:56:49;;;;;;;2.47;1.98;;;;;;;;;;5075416;28;20658;-85
2023/04/05 06:59:16;;;;;;;2.53;2.33;;;;;;;;;;5074416;28;20292;-87
2023/04/05 07:01:44;;;;;;;2.38;2.13;;;;;;;;;;5074649;28;20296;-85
2023/04/05 07:04:13;;;;;;;2.45;2.25;;;;;;;;;;5075255;28;20204;-87
2023/04/05 07:06:42;;;;;;;3.28;2.33;;;;;;;;;;5073892;28;20228;-87
2023/04/05 07:09:09;;;;;;;5.28;2.33;;;;;;;;;;5073381;28;20231;-86
2023/04/05 07:11:38;;;;;;;5.43;3.33;;;;;;;;;;5073326;28;20639;-87
2023/04/05 07:14:06;;;;;;;4.78;2.88;;;;;;;;;;5073536;28;20286;-87
2023/04/05 07:16:34;;;;;;;2.88;2.60;;;;;;;;;;5074059;28;20213;-88
2023/04/05 07:19:04;;;;;;;4.05;2.95;;;;;;;;;;5073614;28;20629;-87
2023/04/05 07:21:32;;;;;;;3.25;2.95;;;;;;;;;;5074992;28;20203;-87
2023/04/05 07:24:02;;;;;;;3.55;2.60;;;;;;;;;;5078322;28;20650;-87
2023/04/05 07:26:33;;;;;;;2.85;2.65;;;;;;;;;;5075754;28;20275;-88
2023/04/05 07:29:01;;;;;;;3.83;2.67;;;;;;;;;;5075048;28;20212;-87
2023/04/05 07:31:28;;;;;;;3.65;2.40;;;;;;;;;;5076835;28;20280;-88
2023/04/05 07:33:57;;;;;;;3.40;3.05;;;;;;;;;;5074534;28;20316;-88
2023/04/05 07:36:25;;;;;;;5.97;3.88;;;;;;;;;;5074338;28;20730;-88
2023/04/05 07:38:53;;;;;;;3.15;2.88;;;;;;;;;;5075385;28;20209;-88
2023/04/05 07:41:22;;;;;;;4.25;3.85;;;;;;;;;;5074710;28;20225;-87
2023/04/05 07:43:50;;;;;;;3.67;2.78;;;;;;;;;;5074352;28;20224;-88
2023/04/05 07:46:18;;;;;;;3.78;3.47;;;;;;;;;;5072887;28;20305;-87
2023/04/05 07:48:47;;;;;;;4.35;3.58;;;;;;;;;;5072563;28;20197;-88
2023/04/05 07:51:15;;;;;;;9.90;3.42;;;;;;;;;;5073798;28;20201;-88
2023/04/05 07:53:43;;;;;;;5.70;3.47;;;;;;;;;;5073313;28;20591;-87
2023/04/05 07:56:12;;;;;;;3.55;2.78;;;;;;;;;;5073320;28;20791;-87
2023/04/05 07:58:41;;;;;;;3.45;3.15;;;;;;;;;;5072992;28;20211;-88
2023/04/05 08:01:10;;;;;;;3.30;3.05;;;;;;;;;;5072658;28;20197;-87
2023/04/05 08:03:39;;;;;;;4.10;3.28;;;;;;;;;;5072648;28;20228;-88
2023/04/05 08:06:16;;;;;;;3.78;2.40;;;;;;;;;;5072760;28;20255;-87
2023/04/05 08:08:45;;;;;;;3.08;2.40;;;;;;;;;;5074123;28;20627;-88
2023/04/05 08:11:12;;;;;;;2.92;2.30;;;;;;;;;;5072519;28;20201;-88
2023/04/05 08:13:41;;;;;;;3.25;2.65;;;;;;;;;;5072815;28;20220;-88
2023/04/05 08:16:10;;;;;;;2.20;2.00;;;;;;;;;;5072670;28;20308;-88
2023/04/05 08:18:37;;;;;;;2.80;2.60;;;;;;;;;;5073002;28;20200;-88
2023/04/05 08:21:05;;;;;;;2.40;2.20;;;;;;;;;;5075312;28;20204;-89
2023/04/05 08:23:32;;;;;;;3.03;2.50;;;;;;;;;;5077326;28;20208;-87
2023/04/05 08:26:00;;;;;;;2.50;2.30;;;;;;;;;;5077346;28;20312;-88
2023/04/05 08:28:28;;;;;;;3.15;2.30;;;;;;;;;;5080603;28;20205;-89
2023/04/05 08:30:57;;;;;;;2.53;2.33;;;;;;;;;;5079477;28;20288;-89
2023/04/05 08:33:27;;;;;;;2.30;1.75;;;;;;;;;;5077062;28;20259;-89
2023/04/05 08:35:55;;;;;;;2.10;1.90;;;;;;;;;;5076074;28;20314;-88
2023/04/05 08:38:22;;;;;;;2.15;1.95;;;;;;;;;;5076364;28;20189;-88
2023/04/05 08:40:50;;;;;;;3.58;2.60;;;;;;;;;;5076019;28;20717;-88
2023/04/05 08:43:23;;;;;;;3.95;2.30;;;;;;;;;;5076201;28;20204;-89
2023/04/05 08:45:53;;;;;;;3.42;2.28;;;;;;;;;;5076659;28;20217;-89
2023/04/05 08:48:22;;;;;;;2.00;1.83;;;;;;;;;;5076418;28;20280;-88
2023/04/05 08:50:53;;;;;;;2.90;2.60;;;;;;;;;;5076539;28;20283;-88
2023/04/05 08:53:21;;;;;;;3.50;3.20;;;;;;;;;;5078246;28;20303;-88
2023/04/05 08:55:51;;;;;;;3.55;3.00;;;;;;;;;;5077112;28;20285;-88
2023/04/05 08:58:22;;;;;;;2.63;2.28;;;;;;;;;;5076424;28;20204;-88
2023/04/05 09:00:51;;;;;;;2.25;2.13;;;;;;;;;;5076081;28;20280;-88
2023/04/05 09:03:23;;;;;;;2.75;2.20;;;;;;;;;;5075768;28;20204;-88
2023/04/05 09:05:51;;;;;;;2.40;2.20;;;;;;;;;;5087216;22;20318;-86
2023/04/05 09:08:21;;;;;;;2.33;2.13;;;;;;;;;;5096152;28;20628;-88
2023/04/05 09:10:51;;;;;;;2.97;2.47;;;;;;;;;;5096157;28;20561;-86
2023/04/05 09:13:19;;;;;;;3.22;2.42;;;;;;;;;;5096158;28;20220;-87
2023/04/05 09:15:46;;;;;;;3.70;2.30;;;;;;;;;;5096482;28;20196;-87
2023/04/05 09:18:14;;;;;;;2.28;1.98;;;;;;;;;;5095736;28;20299;-85
2023/04/05 09:20:43;;;;;;;3.13;2.17;;;;;;;;;;5095949;28;20295;-88
2023/04/05 09:23:10;;;;;;;2.53;2.30;;;;;;;;;;5095414;28;20713;-87
2023/04/05 09:25:41;;;;;;;2.55;2.35;;;;;;;;;;5095810;28;20541;-88
2023/04/05 09:28:09;;;;;;;3.13;2.60;;;;;;;;;;5095951;28;20185;-85
2023/04/05 09:30:37;;;;;;;3.03;2.78;;;;;;;;;;5095869;28;20200;-86
2023/04/05 09:33:07;;;;;;;2.60;2.35;;;;;;;;;;5094425;28;20232;-86
2023/04/05 09:35:37;;;;;;;3.83;2.90;;;;;;;;;;5096362;28;20632;-86
2023/04/05 09:38:06;;;;;;;2.78;2.58;;;;;;;;;;5094955;28;20296;-86
2023/04/05 09:40:43;;;;;;;3.45;3.15;;;;;;;;;;5095058;28;20730;-86
2023/04/05 09:43:10;;;;;;;3.85;3.55;;;;;;;;;;5095550;28;20637;-86
2023/04/05 09:45:42;;;;;;;3.60;3.15;;;;;;;;;;5094688;28;20235;-86
2023/04/05 09:48:11;;;;;;;2.13;1.92;;;;;;;;;;5095030;28;20215;-87
2023/04/05 09:50:39;;;;;;;4.13;2.47;;;;;;;;;;5095143;28;20860;-87
2023/04/05 09:53:14;;;;;;;1.90;1.73;;;;;;;;;;5094608;28;20208;-87
2023/04/05 09:55:42;;;;;;;2.90;2.67;;;;;;;;;;5095197;28;20208;-88
2023/04/05 09:58:13;;;;;;;2.33;2.13;;;;;;;;;;5094916;28;20202;-88
2023/04/05 10:00:52;;;;;;;2.67;2.30;;;;;;;;;;5094677;28;20193;-88
2023/04/05 10:03:19;;;;;;;2.83;2.63;;;;;;;;;;5094685;28;20224;-87
2023/04/05 10:05:47;;;;;;;2.05;1.95;;;;;;;;;;5094810;28;20684;-88
2023/04/05 10:08:16;;;;;;;2.83;2.40;;;;;;;;;;5095157;28;20211;-88
2023/04/05 10:10:47;;;;;;;2.10;2.00;;;;;;;;;;5094890;28;20287;-88
2023/04/05 10:13:18;;;;;;;2.80;2.45;;;;;;;;;;5095634;28;20757;-87
2023/04/05 10:15:47;;;;;;;1.95;1.80;;;;;;;;;;5095213;28;20212;-85
2023/04/05 10:18:21;;;;;;;3.58;2.40;;;;;;;;;;5094913;28;20636;-87
2023/04/05 10:20:51;;;;;;;2.65;2.42;;;;;;;;;;5094925;28;20270;-89
2023/04/05 10:23:25;;;;;;;3.97;2.05;;;;;;;;;;5093925;28;20311;-87
2023/04/05 10:26:05;;;;;;;2.97;2.35;;;;;;;;;;5094389;28;20211;-90
2023/04/05 10:28:35;;;;;;;4.68;3.78;;;;;;;;;;5094627;28;20226;-87
2023/04/05 10:31:12;;;;;;;2.80;2.60;;;;;;;;;;5095007;28;20537;-89
2023/04/05 10:33:44;;;;;;;2.70;2.20;;;;;;;;;;5094715;28;20228;-90
2023/04/05 10:36:21;;;;;;;2.97;2.67;;;;;;;;;;5094425;28;20216;-89
2023/04/05 10:39:03;;;;;;;2.80;2.60;;;;;;;;;;5093963;28;20280;-87
2023/04/05 10:41:36;;;;;;;3.47;2.95;;;;;;;;;;5094301;28;20181;-88
2023/04/05 10:44:05;;;;;;;2.88;2.67;;;;;;;;;;5093955;28;20227;-87
2023/04/05 10:46:33;;;;;;;2.95;2.65;;;;;;;;;;5093714;28;20231;-87
2023/04/05 10:49:07;;;;;;;4.10;3.70;;;;;;;;;;5093334;28;20203;-88
2023/04/05 10:51:35;;;;;;;2.90;2.70;;;;;;;;;;5094360;28;20629;-87
2023/04/05 10:54:04;;;;;;;2.92;2.15;;;;;;;;;;5093877;28;20311;-86
2023/04/05 10:56:32;;;;;;;2.38;2.17;;;;;;;;;;5093337;28;20231;-87
2023/04/05 10:59:00;;;;;;;3.40;3.10;;;;;;;;;;5093779;28;20237;-87
2023/04/05 11:01:28;;;;;;;3.00;2.80;;;;;;;;;;5093886;28;20612;-88
2023/04/05 11:03:55;;;;;;;2.25;2.05;;;;;;;;;;5093646;28;20227;-87
2023/04/05 11:06:30;;;;;;;1.95;1.83;;;;;;;;;;5093543;28;20208;-87
2023/04/05 11:09:01;;;;;;;2.40;2.20;;;;;;;;;;5093874;28;20233;-88
2023/04/05 11:11:40;;;;;;;2.15;1.95;;;;;;;;;;5093856;28;20242;-86
2023/04/05 11:14:20;;;;;;;3.97;2.92;;;;;;;;;;5093745;28;20224;-85
2023/04/05 11:16:52;;;;;;;2.75;2.55;;;;;;;;;;5093467;28;20600;-88
2023/04/05 11:19:19;;;;;;;2.90;2.10;;;;;;;;;;5093494;28;20204;-88
2023/04/05 11:21:47;;;;;;;2.00;1.90;;;;;;;;;;5093490;28;20201;-87
2023/04/05 11:24:15;;;;;;;2.40;2.30;;;;;;;;;;5093484;28;20319;-86
2023/04/05 11:26:56;;;;;;;2.15;2.05;;;;;;;;;;5093627;28;20193;-87
2023/04/05 11:29:53;;;;;;;3.08;2.58;;;;;;;;;;5093613;28;20200;-89
2023/04/05 11:32:24;;;;;;;2.75;2.55;;;;;;;;;;5096132;28;20287;-90
2023/04/05 11:35:05;;;;;;;3.08;2.88;;;;;;;;;;5095156;28;20220;-89
2023/04/05 11:37:55;;;;;;;4.07;2.58;;;;;;;;;;5095949;28;20266;-89
2023/04/05 11:40:31;;;;;;;2.03;1.92;;;;;;;;;;5091627;28;20204;-89
2023/04/05 11:43:08;;;;;;;2.20;2.05;;;;;;;;;;5076238;28;20189;-89
2023/04/05 11:45:38;;;;;;;2.75;2.35;;;;;;;;;;5076018;28;20181;-88
2023/04/05 11:48:06;;;;;;;2.75;2.45;;;;;;;;;;5073884;28;20209;-87
2023/04/05 11:50:35;;;;;;;2.83;2.63;;;;;;;;;;5073539;28;20204;-88
2023/04/05 11:53:10;;;;;;;2.72;2.53;;;;;;;;;;5073197;28;20571;-88
2023/04/05 11:55:38;;;;;;;2.35;2.20;;;;;;;;;;5073714;28;20227;-87
2023/04/05 11:58:17;;;;;;;2.30;2.10;;;;;;;;;;5073865;28;20227;-86
2023/04/05 12:00:46;;;;;;;2.10;1.95;;;;;;;;;;5074381;28;20191;-88
2023/04/05 12:03:14;;;;;;;2.40;2.20;;;;;;;;;;5080263;28;20226;-85
2023/04/05 12:05:50;;;;;;;2.63;2.42;;;;;;;;;;5093400;28;20200;-88
2023/04/05 12:08:18;;;;;;;2.42;2.22;;;;;;;;;;5094008;28;20561;-86
2023/04/05 12:10:54;;;;;;;2.92;2.65;;;;;;;;;;5094001;28;20220;-89
2023/04/05 12:13:29;;;;;;;2.25;1.90;;;;;;;;;;5093174;28;20223;-88
2023/04/05 12:15:59;;;;;;;1.65;1.55;;;;;;;;;;5093788;28;20552;-87
2023/04/05 12:18:27;;;;;;;4.05;2.20;;;;;;;;;;5093096;28;20204;-88
2023/04/05 12:20:55;;;;;;;2.95;2.17;;;;;;;;;;5093061;28;20193;-90
2023/04/05 12:23:23;;;;;;;2.90;2.70;;;;;;;;;;5093493;28;20212;-89
2023/04/05 12:25:53;;;;;;;6.45;2.70;;;;;;;;;;5093393;28;20192;-88
2023/04/05 12:28:20;;;;;;;2.10;2.00;;;;;;;;;;5093331;28;20287;-88
2023/04/05 12:30:55;;;;;;;2.17;1.98;;;;;;;;;;5093157;28;20236;-88
2023/04/05 12:33:31;;;;;;;2.83;2.40;;;;;;;;;;5092882;28;20562;-90
2023/04/05 12:35:59;;;;;;;1.85;1.75;;;;;;;;;;5093378;28;20753;-89
2023/04/05 12:38:27;;;;;;;2.40;2.20;;;;;;;;;;5093120;28;20208;-89
2023/04/05 12:40:57;;;;;;;2.20;2.00;;;;;;;;;;5093377;28;20287;-89
2023/04/05 12:43:25;;;;;;;2.88;2.00;;;;;;;;;;5094227;28;20208;-90
2023/04/05 12:45:55;;;;;;;2.95;2.40;;;;;;;;;;5092787;28;20287;-86
2023/04/05 12:48:24;;;;;;;3.28;2.08;;;;;;;;;;5093336;28;20276;-89
2023/04/05 12:50:53;;;;;;;2.50;2.30;;;;;;;;;;5093189;28;20203;-89
2023/04/05 12:53:23;;;;;;;2.42;2.22;;;;;;;;;;5093401;28;20224;-88
2023/04/05 12:55:52;;;;;;;2.78;2.40;;;;;;;;;;5094005;28;20597;-88
2023/04/05 12:58:20;;;;;;;2.13;1.92;;;;;;;;;;5093324;28;20239;-90
2023/04/05 13:00:48;;;;;;;2.47;2.28;;;;;;;;;;5092948;28;20236;-88
2023/04/05 13:03:21;;;;;;;3.22;2.92;;;;;;;;;;5092735;28;20226;-88
2023/04/05 13:05:49;;;;;;;5.60;3.05;;;;;;;;;;5092475;28;20208;-89
2023/04/05 13:08:17;;;;;;;2.53;2.22;;;;;;;;;;5096266;28;20201;-88
2023/04/05 13:10:45;;;;;;;2.38;2.17;;;;;;;;;;5096226;28;20208;-89
2023/04/05 13:13:13;;;;;;;2.55;2.35;;;;;;;;;;5095621;28;20229;-87
2023/04/05 13:15:41;;;;;;;1.75;1.65;;;;;;;;;;5096227;28;20200;-88
2023/04/05 13:18:08;;;;;;;2.70;2.50;;;;;;;;;;5096085;28;20283;-88
2023/04/05 13:20:37;;;;;;;1.80;1.70;;;;;;;;;;5095522;28;20291;-88
2023/04/05 13:23:09;;;;;;;1.88;1.77;;;;;;;;;;5095594;28;20728;-88
2023/04/05 13:25:37;;;;;;;2.50;2.30;;;;;;;;;;5095935;28;20189;-88
2023/04/05 13:28:04;;;;;;;2.95;2.75;;;;;;;;;;5095720;28;20287;-87
2023/04/05 13:30:32;;;;;;;3.40;2.10;;;;;;;;;;5096098;28;20204;-88
2023/04/05 13:32:59;;;;;;;2.97;2.78;;;;;;;;;;5091177;28;20730;-88
2023/04/05 13:35:27;;;;;;;3.05;2.75;;;;;;;;;;5075776;28;20201;-88
2023/04/05 13:37:56;;;;;;;1.90;1.73;;;;;;;;;;5075169;28;20224;-89
2023/04/05 13:40:23;;;;;;;2.03;1.92;;;;;;;;;;5075000;28;20827;-87
2023/04/05 13:42:56;;;;;;;2.63;2.42;;;;;;;;;;5075790;28;20693;-93
2023/04/05 13:45:23;;;;;;;2.78;2.50;;;;;;;;;;5076757;28;20233;-88
2023/04/05 13:47:51;;;;;;;2.92;2.10;;;;;;;;;;5077128;28;20280;-88
2023/04/05 13:50:18;;;;;;;2.85;2.30;;;;;;;;;;5076632;28;20627;-88
2023/04/05 13:52:46;;;;;;;2.72;1.98;;;;;;;;;;5075440;28;20291;-86
2023/04/05 13:55:15;;;;;;;2.95;2.65;;;;;;;;;;5074914;28;20217;-87
2023/04/05 13:57:42;;;;;;;3.22;2.47;;;;;;;;;;5074497;28;20684;-87
2023/04/05 14:00:12;;;;;;;2.10;1.80;;;;;;;;;;5075704;28;20750;-87
2023/04/05 14:02:40;;;;;;;1.67;1.58;;;;;;;;;;5076291;28;20205;-87
2023/04/05 14:05:08;;;;;;;1.50;1.40;;;;;;;;;;5094634;28;20314;-88
2023/04/05 14:07:36;;;;;;;2.55;2.35;;;;;;;;;;5094148;28;20215;-86
2023/04/05 14:10:06;;;;;;;2.83;2.63;;;;;;;;;;5094663;28;20294;-86
2023/04/05 14:12:36;;;;;;;2.10;2.00;;;;;;;;;;5094785;28;20568;-86
2023/04/05 14:15:03;;;;;;;2.20;2.00;;;;;;;;;;5094696;28;20699;-86
2023/04/05 14:17:31;;;;;;;2.80;2.00;;;;;;;;;;5093931;28;20220;-86
2023/04/05 14:19:59;;;;;;;1.75;1.65;;;;;;;;;;5093741;28;20200;-86
2023/04/05 14:22:26;;;;;;;3.17;2.15;;;;;;;;;;5094151;28;20295;-90
2023/04/05 14:24:54;;;;;;;2.78;2.55;;;;;;;;;;5094023;28;20217;-90
2023/04/05 14:27:25;;;;;;;1.58;1.48;;;;;;;;;;5094246;28;20294;-90
2023/04/05 14:29:55;;;;;;;2.30;1.95;;;;;;;;;;5094764;28;20204;-90
2023/04/05 14:32:24;;;;;;;2.63;2.15;;;;;;;;;;5094467;28;20228;-90
2023/04/05 14:34:51;;;;;;;2.22;2.03;;;;;;;;;;5074596;28;20264;-90
2023/04/05 14:37:19;;;;;;;1.95;1.85;;;;;;;;;;5074104;28;20221;-90
2023/04/05 14:39:47;;;;;;;2.33;2.15;;;;;;;;;;5073878;28;20197;-90
2023/04/05 14:42:15;;;;;;;2.05;1.95;;;;;;;;;;5073420;28;20570;-90
2023/04/05 14:44:42;;;;;;;1.80;1.70;;;;;;;;;;5073935;28;20274;-90
2023/04/05 14:47:11;;;;;;;2.15;2.05;;;;;;;;;;5073549;28;20205;-90
2023/04/05 14:49:39;;;;;;;2.28;2.08;;;;;;;;;;5073419;28;20666;-89
2023/04/05 14:52:06;;;;;;;1.92;1.83;;;;;;;;;;5073732;28;20204;-89
2023/04/05 14:54:34;;;;;;;2.85;2.15;;;;;;;;;;5073892;28;20229;-90
2023/04/05 14:57:02;;;;;;;2.17;1.98;;;;;;;;;;5073405;28;20232;-90
2023/04/05 14:59:30;;;;;;;1.90;1.80;;;;;;;;;;5073298;28;20209;-90
2023/04/05 15:01:57;;;;;;;2.97;2.67;;;;;;;;;;5073854;28;20204;-90
2023/04/05 15:04:27;;;;;;;2.83;2.08;;;;;;;;;;5089787;28;20216;-88